createdAt,value
2023-02-17T00:00:24.243Z,41.20
2023-02-17T00:06:35.075Z,41.80
2023-02-17T00:12:45.590Z,42.30
2023-02-17T00:19:01.567Z,42.60
2023-02-17T00:25:13.234Z,42.50
2023-02-17T00:31:24.334Z,41.80
2023-02-17T00:37:33.364Z,41.90
2023-02-17T00:43:44.101Z,41.10
2023-02-17T00:49:53.129Z,42.50
2023-02-17T00:56:01.908Z,41.60
2023-02-17T01:02:14.504Z,41.60
2023-02-17T01:08:27.850Z,41.20
2023-02-17T01:14:42.189Z,40.50
2023-02-17T01:20:52.110Z,40.50
2023-02-17T01:27:03.552Z,40.70
2023-02-17T01:33:16.439Z,40.40
2023-02-17T01:39:26.366Z,40.40
2023-02-17T01:45:47.775Z,39.90
2023-02-17T01:51:58.012Z,39.90
2023-02-17T01:58:10.612Z,39.80
2023-02-17T02:04:21.883Z,39.90
2023-02-17T02:10:31.263Z,39.80
2023-02-17T02:16:43.895Z,39.80
2023-02-17T02:29:57.307Z,39.70
2023-02-17T02:36:10.883Z,40.40
2023-02-17T02:42:24.846Z,39.60
2023-02-17T02:48:33.564Z,39.70
2023-02-17T02:54:48.518Z,39.60
2023-02-17T03:01:00.294Z,39.50
2023-02-17T03:07:14.171Z,39.60
2023-02-17T03:13:27.568Z,39.40
2023-02-17T03:19:37.039Z,39.60
2023-02-17T03:25:48.139Z,39.30
2023-02-17T03:31:57.247Z,39.60
2023-02-17T03:38:13.245Z,39.50
2023-02-17T03:44:24.241Z,39.50
2023-02-17T03:50:34.101Z,39.60
2023-02-17T03:56:41.370Z,39.40
2023-02-17T04:02:54.081Z,39.50
2023-02-17T04:09:05.593Z,39.40
2023-02-17T04:15:19.196Z,40.40
2023-02-17T04:21:28.070Z,40.00
2023-02-17T04:27:40.917Z,39.60
2023-02-17T04:33:51.224Z,39.80
2023-02-17T04:40:02.423Z,39.60
2023-02-17T04:46:15.011Z,39.60
2023-02-17T04:52:24.309Z,39.60
2023-02-17T04:58:34.346Z,39.40
2023-02-17T05:04:47.578Z,39.60
2023-02-17T05:10:57.309Z,40.20
2023-02-17T05:17:11.186Z,40.20
2023-02-17T05:23:22.170Z,40.30
2023-02-17T05:29:32.101Z,40.30
2023-02-17T05:35:41.066Z,40.30
2023-02-17T05:41:55.875Z,40.20
2023-02-17T05:48:08.920Z,40.80
2023-02-17T05:54:17.910Z,40.90
2023-02-17T06:00:27.840Z,41.10
2023-02-17T06:06:39.477Z,41.40
2023-02-17T06:12:49.970Z,41.60
2023-02-17T06:19:00.237Z,41.60
2023-02-17T06:25:09.762Z,41.30
2023-02-17T06:31:20.510Z,41.30
2023-02-17T06:37:32.196Z,41.20
2023-02-17T06:43:40.671Z,40.90
2023-02-17T06:49:49.138Z,40.90
2023-02-17T06:55:58.388Z,40.70
2023-02-17T07:02:12.851Z,40.70
2023-02-17T07:08:20.492Z,40.60
2023-02-17T07:14:27.780Z,40.40
2023-02-17T07:20:41.457Z,40.50
2023-02-17T07:26:51.001Z,40.30
2023-02-17T07:32:59.216Z,40.30
2023-02-17T07:39:10.528Z,40.20
2023-02-17T07:45:21.981Z,39.80
2023-02-17T07:51:33.612Z,39.80
2023-02-17T07:57:44.462Z,39.70
2023-02-17T08:03:55.415Z,39.80
2023-02-17T08:10:22.721Z,39.90
2023-02-17T08:16:31.800Z,39.90
2023-02-17T08:22:42.975Z,39.60
2023-02-17T08:28:55.398Z,39.70
2023-02-17T08:35:04.980Z,39.60
2023-02-17T08:41:23.443Z,39.60
2023-02-17T08:47:35.376Z,39.90
2023-02-17T08:53:45.440Z,39.50
2023-02-17T08:59:56.924Z,39.60
2023-02-17T09:06:08.144Z,39.60
2023-02-17T09:12:17.631Z,39.60
2023-02-17T09:18:27.777Z,39.70
2023-02-17T09:24:37.384Z,39.70
2023-02-17T09:30:46.070Z,39.50
2023-02-17T09:36:54.647Z,39.70
2023-02-17T09:43:05.445Z,39.60
2023-02-17T09:49:14.945Z,40.00
2023-02-17T09:55:30.160Z,39.70
2023-02-17T10:01:41.136Z,39.70
2023-02-17T10:07:54.173Z,39.70
2023-02-17T10:14:07.905Z,39.70
2023-02-17T10:20:17.780Z,39.90
2023-02-17T10:26:35.448Z,39.50
2023-02-17T10:32:49.977Z,39.60
2023-02-17T10:38:59.664Z,39.70
2023-02-17T10:45:14.535Z,39.80
2023-02-17T10:51:23.615Z,39.60
2023-02-17T10:57:36.003Z,39.50
2023-02-17T11:03:47.091Z,39.60
2023-02-17T11:09:58.255Z,39.60
2023-02-17T11:16:09.022Z,39.60
2023-02-17T11:22:37.744Z,39.30
2023-02-17T11:28:47.623Z,39.40
2023-02-17T11:35:08.189Z,39.50
2023-02-17T11:41:20.681Z,39.40
2023-02-17T11:47:36.803Z,39.20
2023-02-17T11:53:51.239Z,39.20
2023-02-17T12:00:06.343Z,39.40
2023-02-17T12:06:15.824Z,39.30
2023-02-17T12:12:30.400Z,39.20
2023-02-17T12:18:48.447Z,38.90
2023-02-17T12:25:19.057Z,39.10
2023-02-17T12:31:33.855Z,39.10
2023-02-17T12:37:48.534Z,39.10
2023-02-17T12:43:59.837Z,39.10
2023-02-17T12:50:13.719Z,39.20
2023-02-17T12:56:49.954Z,39.20
2023-02-17T13:03:04.036Z,39.20
2023-02-17T13:09:19.687Z,39.20
2023-02-17T13:15:44.719Z,39.20
2023-02-17T13:21:55.898Z,38.90
2023-02-17T13:28:04.867Z,39.20
2023-02-17T13:34:18.024Z,39.20
2023-02-17T13:40:41.693Z,39.70
2023-02-17T13:46:49.059Z,39.50
2023-02-17T13:52:56.720Z,38.90
2023-02-17T13:59:15.484Z,38.80
2023-02-17T14:05:26.488Z,39.40
2023-02-17T14:11:36.693Z,39.70
2023-02-17T14:17:47.268Z,39.10
2023-02-17T14:23:57.887Z,39.30
2023-02-17T14:30:09.933Z,39.30
2023-02-17T14:36:19.073Z,39.30
2023-02-17T14:42:29.566Z,39.30
2023-02-17T14:48:41.091Z,39.50
2023-02-17T14:54:49.668Z,38.30
2023-02-17T15:01:04.808Z,38.60
2023-02-17T15:07:18.307Z,38.90
2023-02-17T15:13:25.769Z,39.10
2023-02-17T15:19:35.883Z,38.80
2023-02-17T15:25:48.529Z,38.00
2023-02-17T15:31:56.590Z,37.60
2023-02-17T15:38:05.746Z,38.10
2023-02-17T15:44:17.899Z,38.00
2023-02-17T15:50:25.882Z,37.60
2023-02-17T15:56:39.319Z,36.60
2023-02-17T16:02:50.946Z,36.90
2023-02-17T16:09:00.504Z,36.80
2023-02-17T16:15:14.758Z,37.10
2023-02-17T16:21:26.509Z,36.90
2023-02-17T16:27:40.294Z,36.60
2023-02-17T16:33:49.206Z,35.90
2023-02-17T16:39:59.312Z,36.20
2023-02-17T16:46:15.563Z,35.70
2023-02-17T16:52:26.534Z,35.70
2023-02-17T16:58:35.754Z,36.00
2023-02-17T17:04:43.329Z,37.00
2023-02-17T17:10:54.848Z,37.40
2023-02-17T17:17:03.510Z,35.20
2023-02-17T17:23:11.651Z,35.40
2023-02-17T17:29:20.258Z,35.50
2023-02-17T17:35:31.992Z,35.40
2023-02-17T17:41:42.914Z,35.30
2023-02-17T17:47:50.783Z,35.90
2023-02-17T17:54:03.314Z,37.10
2023-02-17T18:00:19.736Z,36.60
2023-02-17T18:06:25.495Z,36.10
2023-02-17T18:12:34.702Z,36.40
2023-02-17T18:18:43.467Z,37.00
2023-02-17T18:24:54.941Z,37.70
2023-02-17T18:31:12.594Z,37.90
2023-02-17T18:37:21.635Z,38.30
2023-02-17T18:43:34.137Z,38.30
2023-02-17T18:49:45.541Z,36.90
2023-02-17T18:55:54.610Z,36.70
2023-02-17T19:02:08.196Z,37.20
2023-02-17T19:08:16.781Z,37.40
2023-02-17T19:20:42.784Z,37.50
2023-02-17T19:26:50.306Z,37.60
2023-02-17T19:33:00.887Z,37.50
2023-02-17T19:39:14.647Z,36.40
2023-02-17T19:45:25.403Z,36.60
2023-02-17T19:51:38.229Z,37.00
2023-02-17T19:57:50.492Z,37.00
2023-02-17T20:10:18.719Z,36.10
2023-02-17T20:16:29.632Z,36.00
2023-02-17T20:22:38.596Z,36.40
2023-02-17T20:28:51.990Z,36.50
2023-02-17T20:35:02.075Z,36.70
2023-02-17T20:41:16.087Z,36.80
2023-02-17T20:47:29.527Z,36.40
2023-02-17T20:53:42.257Z,35.80
2023-02-17T20:59:53.109Z,36.20
2023-02-17T21:06:00.517Z,36.70
2023-02-17T21:12:11.981Z,37.00
2023-02-17T21:18:23.528Z,36.80
2023-02-17T21:24:33.374Z,36.80
2023-02-17T21:30:46.063Z,35.90
2023-02-17T21:36:54.493Z,35.90
2023-02-17T21:43:21.945Z,36.10
2023-02-17T21:49:33.650Z,36.20
2023-02-17T21:55:44.888Z,36.40
2023-02-17T22:01:56.360Z,36.60
2023-02-17T22:08:04.913Z,36.40
2023-02-17T22:14:16.646Z,35.60
2023-02-17T22:20:27.194Z,35.80
2023-02-17T22:26:35.256Z,36.10
2023-02-17T22:32:44.482Z,36.30
2023-02-17T22:38:54.568Z,36.40
2023-02-17T22:45:06.821Z,36.20
2023-02-17T22:51:15.555Z,35.50
2023-02-17T22:57:26.399Z,35.70
2023-02-17T23:03:38.208Z,36.50
2023-02-17T23:09:48.213Z,37.90
2023-02-17T23:15:59.407Z,38.00
2023-02-17T23:22:12.701Z,38.10
2023-02-17T23:28:22.172Z,37.70
2023-02-17T23:34:32.192Z,39.40
2023-02-17T23:40:47.965Z,39.30
2023-02-17T23:46:59.510Z,39.00
2023-02-17T23:53:15.089Z,39.10
2023-02-17T23:59:24.368Z,38.50
